createdAt,value
2018-11-04T00:02:06.873Z,8.07
2018-11-04T00:04:36.073Z,8.40
2018-11-04T00:07:05.317Z,8.50
2018-11-04T00:09:34.402Z,7.97
2018-11-04T00:12:03.809Z,8.73
2018-11-04T00:14:33.373Z,9.37
2018-11-04T00:17:03.001Z,9.10
2018-11-04T00:19:32.150Z,9.60
2018-11-04T00:22:01.757Z,9.30
2018-11-04T00:24:30.853Z,8.87
2018-11-04T00:26:59.983Z,10.23
2018-11-04T00:29:29.095Z,9.13
2018-11-04T00:31:58.217Z,8.93
2018-11-04T00:34:27.929Z,9.07
2018-11-04T00:36:57.092Z,8.10
2018-11-04T00:39:26.573Z,8.70
2018-11-04T00:41:55.725Z,9.20
2018-11-04T00:44:24.865Z,9.00
2018-11-04T00:46:53.953Z,8.60
2018-11-04T00:49:23.569Z,7.73
2018-11-04T00:51:52.677Z,7.93
2018-11-04T00:54:21.817Z,7.53
2018-11-04T00:56:51.369Z,6.67
2018-11-04T00:59:20.521Z,8.07
2018-11-04T01:01:49.689Z,6.23
2018-11-04T01:04:19.236Z,6.73
2018-11-04T01:06:48.393Z,7.07
2018-11-04T01:09:17.617Z,6.07
2018-11-04T01:11:46.742Z,7.00
2018-11-04T01:14:15.853Z,7.70
2018-11-04T01:16:45.005Z,8.70
2018-11-04T01:19:14.232Z,8.40
2018-11-04T01:21:43.401Z,8.43
2018-11-04T01:24:12.693Z,9.10
2018-11-04T01:26:42.728Z,8.97
2018-11-04T01:29:12.154Z,7.73
2018-11-04T01:31:41.264Z,8.70
2018-11-04T01:34:10.390Z,6.60
2018-11-04T01:36:40.153Z,6.27
2018-11-04T01:39:10.081Z,5.60
2018-11-04T01:41:39.601Z,5.60
2018-11-04T01:44:11.046Z,4.77
2018-11-04T01:46:41.768Z,5.53
2018-11-04T01:49:10.844Z,7.30
2018-11-04T01:51:39.998Z,5.87
2018-11-04T01:54:09.136Z,5.80
2018-11-04T01:56:38.289Z,5.93
2018-11-04T01:59:07.449Z,7.70
2018-11-04T02:01:36.679Z,8.40
2018-11-04T02:04:06.289Z,8.70
2018-11-04T02:06:35.668Z,9.23
2018-11-04T02:09:07.181Z,9.23
2018-11-04T02:11:36.701Z,9.20
2018-11-04T02:14:06.372Z,9.53
2018-11-04T02:16:36.244Z,9.47
2018-11-04T02:19:05.924Z,9.27
2018-11-04T02:21:35.081Z,9.53
2018-11-04T02:24:04.241Z,9.43
2018-11-04T02:26:33.349Z,9.30
2018-11-04T02:29:02.434Z,9.77
2018-11-04T02:31:31.553Z,10.63
2018-11-04T02:34:00.725Z,10.77
2018-11-04T02:36:29.817Z,10.97
2018-11-04T02:38:58.944Z,9.40
2018-11-04T02:41:28.176Z,10.07
2018-11-04T02:43:57.319Z,10.43
2018-11-04T02:46:26.441Z,10.83
2018-11-04T02:48:55.613Z,10.13
2018-11-04T02:51:24.754Z,10.83
2018-11-04T02:53:53.884Z,8.90
2018-11-04T02:56:23.058Z,9.17
2018-11-04T02:58:52.393Z,8.80
2018-11-04T03:01:21.490Z,8.87
2018-11-04T03:03:50.689Z,9.70
2018-11-04T03:06:19.836Z,8.90
2018-11-04T03:08:49.576Z,8.53
2018-11-04T03:11:18.717Z,6.80
2018-11-04T03:13:47.861Z,8.17
2018-11-04T03:16:17.050Z,6.37
2018-11-04T03:18:46.185Z,6.23
2018-11-04T03:21:15.864Z,6.03
2018-11-04T03:23:45.009Z,5.70
2018-11-04T03:26:14.171Z,5.10
2018-11-04T03:28:43.389Z,5.63
2018-11-04T03:31:12.509Z,5.07
2018-11-04T03:33:41.581Z,5.03
2018-11-04T03:36:10.673Z,5.07
2018-11-04T03:38:39.767Z,4.60
2018-11-04T03:41:08.973Z,5.07
2018-11-04T03:43:38.083Z,4.53
2018-11-04T03:46:07.601Z,4.50
2018-11-04T03:48:37.052Z,4.97
2018-11-04T03:51:06.248Z,4.73
2018-11-04T03:53:35.346Z,5.17
2018-11-04T03:56:04.844Z,5.20
2018-11-04T03:58:34.504Z,5.40
2018-11-04T04:01:03.663Z,5.37
2018-11-04T04:03:32.765Z,5.33
2018-11-04T04:06:01.892Z,4.70
2018-11-04T04:08:31.080Z,4.83
2018-11-04T04:11:00.189Z,5.20
2018-11-04T04:13:29.373Z,4.80
2018-11-04T04:15:58.473Z,4.83
2018-11-04T04:18:27.653Z,4.43
2018-11-04T04:21:00.925Z,4.80
2018-11-04T04:23:30.005Z,4.93
2018-11-04T04:25:59.141Z,4.60
2018-11-04T04:28:28.344Z,4.80
2018-11-04T04:30:57.524Z,5.47
2018-11-04T04:33:26.605Z,5.23
2018-11-04T04:35:55.749Z,4.67
2018-11-04T04:38:25.501Z,5.13
2018-11-04T04:40:54.649Z,5.30
2018-11-04T04:43:23.752Z,5.13
2018-11-04T04:45:53.289Z,5.23
2018-11-04T04:48:22.497Z,5.40
2018-11-04T04:50:52.012Z,5.27
2018-11-04T04:53:23.857Z,5.13
2018-11-04T04:55:55.555Z,6.30
2018-11-04T04:58:24.777Z,4.90
2018-11-04T05:00:54.713Z,5.10
2018-11-04T05:03:24.062Z,5.07
2018-11-04T05:05:53.222Z,5.60
2018-11-04T05:08:22.520Z,5.10
2018-11-04T05:10:52.556Z,4.53
2018-11-04T05:13:21.686Z,5.97
2018-11-04T05:15:50.784Z,5.80
2018-11-04T05:18:19.973Z,5.43
2018-11-04T05:20:49.161Z,5.40
2018-11-04T05:23:18.243Z,6.07
2018-11-04T05:25:47.429Z,5.30
2018-11-04T05:28:16.613Z,5.83
2018-11-04T05:30:45.761Z,7.00
2018-11-04T05:33:14.916Z,6.57
2018-11-04T05:35:45.181Z,6.53
2018-11-04T05:38:14.429Z,5.30
2018-11-04T05:40:44.725Z,5.80
2018-11-04T05:43:13.884Z,5.87
2018-11-04T05:45:42.997Z,6.63
2018-11-04T05:48:12.117Z,5.97
2018-11-04T05:50:41.249Z,6.20
2018-11-04T05:53:10.384Z,6.43
2018-11-04T05:55:39.449Z,6.93
2018-11-04T05:58:08.833Z,7.90
2018-11-04T06:00:38.873Z,6.20
2018-11-04T06:03:07.964Z,6.20
2018-11-04T06:05:37.144Z,5.20
2018-11-04T06:08:06.852Z,6.47
2018-11-04T06:10:36.038Z,6.37
2018-11-04T06:13:05.499Z,5.90
2018-11-04T06:15:34.701Z,5.00
2018-11-04T06:18:03.816Z,5.40
2018-11-04T06:20:33.036Z,5.80
2018-11-04T06:23:02.168Z,5.40
2018-11-04T06:25:31.669Z,5.27
2018-11-04T06:28:00.856Z,5.23
2018-11-04T06:30:29.967Z,5.20
2018-11-04T06:32:59.057Z,5.60
2018-11-04T06:35:28.257Z,5.57
2018-11-04T06:37:57.373Z,5.93
2018-11-04T06:40:26.525Z,5.43
2018-11-04T06:42:56.553Z,5.83
2018-11-04T06:45:25.660Z,5.30
2018-11-04T06:47:54.857Z,5.83
2018-11-04T06:50:23.977Z,5.60
2018-11-04T06:52:53.049Z,6.40
2018-11-04T06:55:22.269Z,6.37
2018-11-04T06:57:51.348Z,6.33
2018-11-04T07:00:20.980Z,6.60
2018-11-04T07:02:50.848Z,7.27
2018-11-04T07:05:20.028Z,8.30
2018-11-04T07:07:49.177Z,8.80
2018-11-04T07:10:18.377Z,9.37
2018-11-04T07:12:47.557Z,9.87
2018-11-04T07:15:16.689Z,9.67
2018-11-04T07:17:45.816Z,9.10
2018-11-04T07:20:15.113Z,10.77
2018-11-04T07:22:44.260Z,8.93
2018-11-04T07:25:13.341Z,10.50
2018-11-04T07:27:42.480Z,6.93
2018-11-04T07:30:12.858Z,7.77
2018-11-04T07:32:42.222Z,7.07
2018-11-04T07:35:11.426Z,6.43
2018-11-04T07:37:41.380Z,6.93
2018-11-04T07:40:10.603Z,8.20
2018-11-04T07:42:39.865Z,7.27
2018-11-04T07:45:09.861Z,7.23
2018-11-04T07:47:39.058Z,8.97
2018-11-04T07:50:12.589Z,8.13
2018-11-04T07:52:42.633Z,7.67
2018-11-04T07:55:11.778Z,7.70
2018-11-04T07:57:42.642Z,7.80
2018-11-04T08:00:14.225Z,6.70
2018-11-04T08:02:44.025Z,7.80
2018-11-04T08:05:13.521Z,8.17
2018-11-04T08:07:42.641Z,8.40
2018-11-04T08:10:13.008Z,8.77
2018-11-04T08:12:42.561Z,8.87
2018-11-04T08:15:12.068Z,9.67
2018-11-04T08:17:41.384Z,13.37
2018-11-04T08:20:10.872Z,12.00
2018-11-04T08:22:40.519Z,10.80
2018-11-04T08:25:09.696Z,10.30
2018-11-04T08:27:38.939Z,11.20
2018-11-04T08:30:09.562Z,12.17
2018-11-04T08:32:38.828Z,11.47
2018-11-04T08:35:07.970Z,10.63
2018-11-04T08:37:37.093Z,10.67
2018-11-04T08:40:07.144Z,10.77
2018-11-04T08:42:36.151Z,11.60
2018-11-04T08:45:06.534Z,12.07
2018-11-04T08:47:35.709Z,12.60
2018-11-04T08:50:06.797Z,13.43
2018-11-04T08:52:36.116Z,12.73
2018-11-04T08:55:05.801Z,12.80
2018-11-04T08:57:34.876Z,12.73
2018-11-04T09:00:04.653Z,14.77
2018-11-04T09:02:33.957Z,14.90
2018-11-04T09:05:03.065Z,14.50
2018-11-04T09:07:32.283Z,13.93
2018-11-04T09:10:01.386Z,15.00
2018-11-04T09:12:30.637Z,14.00
2018-11-04T09:15:00.236Z,14.07
2018-11-04T09:17:29.428Z,14.10
2018-11-04T09:19:58.664Z,14.93
2018-11-04T09:22:27.952Z,13.23
2018-11-04T09:24:57.045Z,15.23
2018-11-04T09:27:26.831Z,13.77
2018-11-04T09:29:56.173Z,14.17
2018-11-04T09:32:25.309Z,13.80
2018-11-04T09:34:54.648Z,15.43
2018-11-04T09:37:23.705Z,15.43
2018-11-04T09:39:52.896Z,16.17
2018-11-04T09:42:22.090Z,16.23
2018-11-04T09:44:51.232Z,16.17
2018-11-04T09:47:20.373Z,16.37
2018-11-04T09:49:49.545Z,17.07
2018-11-04T09:52:18.743Z,16.40
2018-11-04T09:54:47.921Z,16.53
2018-11-04T09:57:17.529Z,16.83
2018-11-04T09:59:46.921Z,16.67
2018-11-04T10:02:16.265Z,17.23
2018-11-04T10:04:45.469Z,14.97
2018-11-04T10:07:14.760Z,16.13
2018-11-04T10:09:43.865Z,16.97
2018-11-04T10:12:13.677Z,16.17
2018-11-04T10:14:42.881Z,15.07
2018-11-04T10:17:12.057Z,15.13
2018-11-04T10:19:41.272Z,17.83
2018-11-04T10:22:10.297Z,15.47
2018-11-04T10:24:39.591Z,15.73
2018-11-04T10:27:08.753Z,17.00
2018-11-04T10:29:38.255Z,16.62
2018-11-04T10:32:07.461Z,16.73
2018-11-04T10:34:36.608Z,16.95
2018-11-04T10:37:06.584Z,18.05
2018-11-04T10:39:35.680Z,16.48
2018-11-04T10:42:04.909Z,17.45
2018-11-04T10:44:34.037Z,17.05
2018-11-04T10:47:03.204Z,18.85
2018-11-04T10:49:32.630Z,19.05
2018-11-04T10:52:01.546Z,19.13
2018-11-04T10:54:30.669Z,20.30
2018-11-04T10:56:59.774Z,19.10
2018-11-04T10:59:28.994Z,19.33
2018-11-04T11:01:58.121Z,21.25
2018-11-04T11:04:27.231Z,18.95
2018-11-04T11:06:56.365Z,19.17
2018-11-04T11:09:25.565Z,20.67
2018-11-04T11:11:54.633Z,20.47
2018-11-04T11:14:23.815Z,20.30
2018-11-04T11:16:52.954Z,20.47
2018-11-04T11:19:22.125Z,21.03
2018-11-04T11:21:51.321Z,20.67
2018-11-04T11:24:20.441Z,18.95
2018-11-04T11:26:49.592Z,20.30
2018-11-04T11:29:18.801Z,20.63
2018-11-04T11:31:47.937Z,19.90
2018-11-04T11:34:17.096Z,20.40
2018-11-04T11:36:46.293Z,18.60
2018-11-04T11:39:15.413Z,20.25
2018-11-04T11:41:44.697Z,19.67
2018-11-04T11:44:13.897Z,19.75
2018-11-04T11:46:43.090Z,19.10
2018-11-04T11:49:12.720Z,20.25
2018-11-04T11:51:42.277Z,18.85
2018-11-04T11:54:11.505Z,18.77
2018-11-04T11:56:40.615Z,19.00
2018-11-04T11:59:10.096Z,19.33
2018-11-04T12:01:39.259Z,19.40
2018-11-04T12:04:08.417Z,18.82
2018-11-04T12:06:38.890Z,18.10
2018-11-04T12:09:09.505Z,18.95
2018-11-04T12:11:38.645Z,17.87
2018-11-04T12:14:07.873Z,18.32
2018-11-04T12:16:37.057Z,17.92
2018-11-04T12:19:06.228Z,18.45
2018-11-04T12:21:35.429Z,18.23
2018-11-04T12:24:04.637Z,18.73
2018-11-04T12:26:33.814Z,18.93
2018-11-04T12:29:03.039Z,19.40
2018-11-04T12:31:32.241Z,18.20
2018-11-04T12:34:01.385Z,18.47
2018-11-04T12:36:30.661Z,17.67
2018-11-04T12:38:59.905Z,18.43
2018-11-04T12:41:29.030Z,19.65
2018-11-04T12:43:58.217Z,18.30
2018-11-04T12:46:27.373Z,18.23
2018-11-04T12:48:56.492Z,17.23
2018-11-04T12:51:26.053Z,19.10
2018-11-04T12:53:55.217Z,18.62
2018-11-04T12:56:24.372Z,18.62
2018-11-04T12:58:54.544Z,19.27
2018-11-04T13:01:23.710Z,18.23
2018-11-04T13:03:53.017Z,17.17
2018-11-04T13:06:22.773Z,18.20
2018-11-04T13:08:51.948Z,18.67
2018-11-04T13:11:21.121Z,17.70
2018-11-04T13:13:50.237Z,17.57
2018-11-04T13:16:19.365Z,17.07
2018-11-04T13:18:48.556Z,18.93
2018-11-04T13:21:17.797Z,17.97
2018-11-04T13:23:46.892Z,18.40
2018-11-04T13:26:16.038Z,17.87
2018-11-04T13:28:45.221Z,18.10
2018-11-04T13:31:14.385Z,18.07
2018-11-04T13:33:43.601Z,19.10
2018-11-04T13:36:12.786Z,18.50
2018-11-04T13:38:42.912Z,17.43
2018-11-04T13:41:12.132Z,19.67
2018-11-04T13:43:41.584Z,17.27
2018-11-04T13:46:11.645Z,17.37
2018-11-04T13:48:41.309Z,18.23
2018-11-04T13:51:10.745Z,17.40
2018-11-04T13:53:39.853Z,17.50
2018-11-04T13:56:09.028Z,18.13
2018-11-04T13:58:38.157Z,17.27
2018-11-04T14:01:07.422Z,16.80
2018-11-04T14:03:36.669Z,16.97
2018-11-04T14:06:06.146Z,17.77
2018-11-04T14:08:35.345Z,16.13
2018-11-04T14:11:04.961Z,15.57
2018-11-04T14:13:34.180Z,15.77
2018-11-04T14:16:03.233Z,15.57
2018-11-04T14:18:32.400Z,15.90
2018-11-04T14:21:01.806Z,15.27
2018-11-04T14:23:31.112Z,15.63
2018-11-04T14:26:00.283Z,14.13
2018-11-04T14:28:29.824Z,14.03
2018-11-04T14:30:58.998Z,14.00
2018-11-04T14:33:28.153Z,14.93
2018-11-04T14:35:57.325Z,14.13
2018-11-04T14:38:26.517Z,13.67
2018-11-04T14:40:56.204Z,14.70
2018-11-04T14:43:25.769Z,14.17
2018-11-04T14:45:54.996Z,14.43
2018-11-04T14:48:24.462Z,13.40
2018-11-04T14:50:53.609Z,14.17
2018-11-04T14:53:22.749Z,14.33
2018-11-04T14:55:52.233Z,14.03
2018-11-04T14:58:21.862Z,13.83
2018-11-04T15:00:51.025Z,13.93
2018-11-04T15:03:20.106Z,14.03
2018-11-04T15:05:49.269Z,13.53
2018-11-04T15:08:18.457Z,14.20
2018-11-04T15:10:47.626Z,13.83
2018-11-04T15:13:17.469Z,15.10
2018-11-04T15:15:46.569Z,15.73
2018-11-04T15:18:15.745Z,15.03
2018-11-04T15:20:44.830Z,14.17
2018-11-04T15:23:14.014Z,15.60
2018-11-04T15:25:43.745Z,16.00
2018-11-04T15:28:12.898Z,16.10
2018-11-04T15:30:42.037Z,16.90
2018-11-04T15:33:11.216Z,16.10
2018-11-04T15:35:40.341Z,16.77
2018-11-04T15:38:09.472Z,15.60
2018-11-04T15:40:38.687Z,15.70
2018-11-04T15:43:07.705Z,15.93
2018-11-04T15:45:36.841Z,15.37
2018-11-04T15:48:06.026Z,16.37
2018-11-04T15:50:35.132Z,16.53
2018-11-04T15:53:04.317Z,16.87
2018-11-04T15:55:33.444Z,16.10
2018-11-04T15:58:02.849Z,17.17
2018-11-04T16:00:32.745Z,16.83
2018-11-04T16:03:01.917Z,17.37
2018-11-04T16:05:31.227Z,17.43
2018-11-04T16:08:00.244Z,16.63
2018-11-04T16:10:29.425Z,17.10
2018-11-04T16:12:58.653Z,17.40
2018-11-04T16:15:27.813Z,17.00
2018-11-04T16:17:57.015Z,17.20
2018-11-04T16:20:26.093Z,17.20
2018-11-04T16:22:55.284Z,16.80
2018-11-04T16:25:24.523Z,17.40
2018-11-04T16:27:53.721Z,15.57
2018-11-04T16:30:22.906Z,18.03
2018-11-04T16:32:52.047Z,18.17
2018-11-04T16:35:21.181Z,19.63
2018-11-04T16:37:50.348Z,19.60
2018-11-04T16:40:19.576Z,20.03
2018-11-04T16:42:48.660Z,19.33
2018-11-04T16:45:17.805Z,19.90
2018-11-04T16:47:46.978Z,20.17
2018-11-04T16:50:16.418Z,20.77
2018-11-04T16:52:46.056Z,20.43
2018-11-04T16:55:15.748Z,20.77
2018-11-04T16:57:45.180Z,20.63
2018-11-04T17:00:14.337Z,21.93
2018-11-04T17:02:43.492Z,21.77
2018-11-04T17:05:13.406Z,21.13
2018-11-04T17:07:42.928Z,20.97
2018-11-04T17:10:12.328Z,21.40
2018-11-04T17:12:41.577Z,22.43
2018-11-04T17:15:12.736Z,22.60
2018-11-04T17:17:41.922Z,21.43
2018-11-04T17:20:15.685Z,21.33
2018-11-04T17:22:45.453Z,22.40
2018-11-04T17:25:14.576Z,21.60
2018-11-04T17:27:43.778Z,20.30
2018-11-04T17:30:16.128Z,21.40
2018-11-04T17:32:45.497Z,20.67
2018-11-04T17:35:15.715Z,21.13
2018-11-04T17:37:45.669Z,20.03
2018-11-04T17:40:15.400Z,22.07
2018-11-04T17:42:44.802Z,22.30
2018-11-04T17:45:15.385Z,20.40
2018-11-04T17:47:45.097Z,20.37
2018-11-04T17:50:16.266Z,21.27
2018-11-04T17:52:45.916Z,21.87
2018-11-04T17:55:15.239Z,21.23
2018-11-04T17:57:44.572Z,20.83
2018-11-04T18:00:14.902Z,21.47
2018-11-04T18:02:44.329Z,20.77
2018-11-04T18:05:14.653Z,20.53
2018-11-04T18:07:44.314Z,20.90
2018-11-04T18:10:14.274Z,20.27
2018-11-04T18:12:43.629Z,20.87
2018-11-04T18:15:14.263Z,20.17
2018-11-04T18:17:43.421Z,20.77
2018-11-04T18:20:13.281Z,20.47
2018-11-04T18:22:43.429Z,20.37
2018-11-04T18:25:13.291Z,19.87
2018-11-04T18:27:43.014Z,19.13
2018-11-04T18:30:14.346Z,19.50
2018-11-04T18:32:45.197Z,18.90
2018-11-04T18:35:14.549Z,18.37
2018-11-04T18:37:43.889Z,18.57
2018-11-04T18:40:15.113Z,17.80
2018-11-04T18:42:45.063Z,18.17
2018-11-04T18:45:15.429Z,16.70
2018-11-04T18:47:45.006Z,17.20
2018-11-04T18:50:15.018Z,16.93
2018-11-04T18:52:44.181Z,17.20
2018-11-04T18:55:13.509Z,16.00
2018-11-04T18:57:43.735Z,16.10
2018-11-04T19:00:18.345Z,15.57
2018-11-04T19:02:48.301Z,13.90
2018-11-04T19:05:18.276Z,16.53
2018-11-04T19:07:47.356Z,15.00
2018-11-04T19:10:18.221Z,14.37
2018-11-04T19:12:47.364Z,14.50
2018-11-04T19:15:16.433Z,14.03
2018-11-04T19:17:45.596Z,14.40
2018-11-04T19:20:15.601Z,12.40
2018-11-04T19:22:45.071Z,13.27
2018-11-04T19:25:15.342Z,13.07
2018-11-04T19:27:44.471Z,13.37
2018-11-04T19:30:15.032Z,12.43
2018-11-04T19:32:45.084Z,13.10
2018-11-04T19:35:15.204Z,13.97
2018-11-04T19:37:44.356Z,13.23
2018-11-04T19:40:14.881Z,14.80
2018-11-04T19:42:44.204Z,14.73
2018-11-04T19:45:13.324Z,14.40
2018-11-04T19:47:42.473Z,14.33
2018-11-04T19:50:12.802Z,14.80
2018-11-04T19:52:42.409Z,14.33
2018-11-04T19:55:12.244Z,14.77
2018-11-04T19:57:41.816Z,15.90
2018-11-04T20:00:12.245Z,14.80
2018-11-04T20:02:41.469Z,15.40
2018-11-04T20:05:12.069Z,14.50
2018-11-04T20:07:41.269Z,15.70
2018-11-04T20:10:13.369Z,13.83
2018-11-04T20:12:47.825Z,15.40
2018-11-04T20:15:17.014Z,14.87
2018-11-04T20:17:47.673Z,14.57
2018-11-04T20:20:21.982Z,14.20
2018-11-04T20:22:51.018Z,14.00
2018-11-04T20:25:25.872Z,14.70
2018-11-04T20:27:54.953Z,15.00
2018-11-04T20:30:24.033Z,14.37
2018-11-04T20:32:58.548Z,14.03
2018-11-04T20:35:28.714Z,14.50
2018-11-04T20:37:57.864Z,14.47
2018-11-04T20:40:32.449Z,13.10
2018-11-04T20:43:01.557Z,14.17
2018-11-04T20:45:30.669Z,14.10
2018-11-04T20:48:05.120Z,14.20
2018-11-04T20:50:39.454Z,14.13
2018-11-04T20:53:08.636Z,14.60
2018-11-04T20:55:43.048Z,14.80
2018-11-04T20:58:12.264Z,13.07
2018-11-04T21:00:41.319Z,15.27
2018-11-04T21:03:10.453Z,14.90
2018-11-04T21:05:41.078Z,15.80
2018-11-04T21:08:10.345Z,15.63
2018-11-04T21:10:39.446Z,15.80
2018-11-04T21:13:08.658Z,15.20
2018-11-04T21:15:37.815Z,15.27
2018-11-04T21:18:06.946Z,17.03
2018-11-04T21:20:36.557Z,16.20
2018-11-04T21:23:05.709Z,16.40
2018-11-04T21:25:35.085Z,17.20
2018-11-04T21:28:04.226Z,15.87
2018-11-04T21:30:33.257Z,15.77
2018-11-04T21:33:02.441Z,15.27
2018-11-04T21:35:31.608Z,15.30
2018-11-04T21:38:00.858Z,16.87
2018-11-04T21:40:30.033Z,16.33
2018-11-04T21:42:59.750Z,16.90
2018-11-04T21:45:28.862Z,17.47
2018-11-04T21:47:58.057Z,17.23
2018-11-04T21:50:27.259Z,16.13
2018-11-04T21:52:56.482Z,17.07
2018-11-04T21:55:26.472Z,17.80
2018-11-04T21:57:55.369Z,17.63
2018-11-04T22:00:24.537Z,16.87
2018-11-04T22:02:53.824Z,16.83
2018-11-04T22:05:22.900Z,17.23
2018-11-04T22:07:52.190Z,17.20
2018-11-04T22:10:21.331Z,17.00
2018-11-04T22:12:50.964Z,17.07
2018-11-04T22:15:20.136Z,16.50
2018-11-04T22:17:49.229Z,17.23
2018-11-04T22:20:18.420Z,17.13
2018-11-04T22:22:47.593Z,16.70
2018-11-04T22:25:16.805Z,15.77
2018-11-04T22:27:46.004Z,16.43
2018-11-04T22:30:15.825Z,17.10
2018-11-04T22:32:44.945Z,15.70
2018-11-04T22:35:14.125Z,16.07
2018-11-04T22:37:43.359Z,16.47
2018-11-04T22:40:12.776Z,15.67
2018-11-04T22:42:42.289Z,15.67
2018-11-04T22:45:12.353Z,15.07
2018-11-04T22:47:42.430Z,16.10
2018-11-04T22:50:14.541Z,16.63
2018-11-04T22:52:44.094Z,16.07
2018-11-04T22:55:14.734Z,15.37
2018-11-04T22:57:44.469Z,14.60
2018-11-04T23:00:18.904Z,15.27
2018-11-04T23:02:50.128Z,15.80
2018-11-04T23:05:24.570Z,14.90
2018-11-04T23:07:53.699Z,15.70
2018-11-04T23:10:23.901Z,15.00
2018-11-04T23:12:53.085Z,14.93
2018-11-04T23:15:22.173Z,15.57
2018-11-04T23:17:51.349Z,15.53
2018-11-04T23:20:20.623Z,14.13
2018-11-04T23:22:49.832Z,15.20
2018-11-04T23:25:18.953Z,14.63
2018-11-04T23:27:48.045Z,14.97
2018-11-04T23:30:19.262Z,16.30
2018-11-04T23:32:48.877Z,15.80
2018-11-04T23:35:18.016Z,16.27
2018-11-04T23:37:47.120Z,15.90
2018-11-04T23:40:16.276Z,16.37
2018-11-04T23:42:45.512Z,16.87
2018-11-04T23:45:15.265Z,15.60
2018-11-04T23:47:44.973Z,16.77
2018-11-04T23:50:16.952Z,17.37
2018-11-04T23:52:46.238Z,16.57
2018-11-04T23:55:16.309Z,16.60
2018-11-04T23:57:46.089Z,16.43
